createdAt,value
2017-11-23T00:00:57.456Z,0
2017-11-23T00:02:06.284Z,0
2017-11-23T00:03:15.267Z,0
2017-11-23T00:04:24.093Z,0
2017-11-23T00:05:32.924Z,0
2017-11-23T00:06:41.754Z,0
2017-11-23T00:07:50.591Z,0
2017-11-23T00:08:59.610Z,0
2017-11-23T00:10:08.441Z,0
2017-11-23T00:11:17.271Z,0
2017-11-23T00:12:26.096Z,0
2017-11-23T00:13:34.925Z,0
2017-11-23T00:14:43.900Z,0
2017-11-23T00:15:52.732Z,0
2017-11-23T00:17:01.558Z,0
2017-11-23T00:18:10.394Z,0
2017-11-23T00:19:19.506Z,0
2017-11-23T00:20:28.334Z,0
2017-11-23T00:21:37.161Z,0
2017-11-23T00:22:46.039Z,0
2017-11-23T00:23:54.870Z,0
2017-11-23T00:25:03.700Z,0
2017-11-23T00:26:12.677Z,0
2017-11-23T00:27:21.507Z,0
2017-11-23T00:28:30.338Z,0
2017-11-23T00:29:39.169Z,0
2017-11-23T00:30:48.003Z,0
2017-11-23T00:31:56.979Z,0
2017-11-23T00:33:05.809Z,0
2017-11-23T00:34:14.642Z,0
2017-11-23T00:35:23.474Z,0
2017-11-23T00:36:32.302Z,0
2017-11-23T00:37:41.132Z,0
2017-11-23T00:38:49.961Z,0
2017-11-23T00:39:58.792Z,0
2017-11-23T00:41:07.625Z,0
2017-11-23T00:42:16.454Z,0
2017-11-23T00:43:25.284Z,0
2017-11-23T00:44:34.390Z,0
2017-11-23T00:45:43.501Z,0
2017-11-23T00:46:52.331Z,0
2017-11-23T00:48:01.157Z,0
2017-11-23T00:49:09.987Z,0
2017-11-23T00:50:18.816Z,0
2017-11-23T00:51:27.654Z,0
2017-11-23T00:52:36.760Z,0
2017-11-23T00:53:45.590Z,0
2017-11-23T00:54:54.519Z,0
2017-11-23T00:56:03.348Z,0
2017-11-23T00:57:12.178Z,0
2017-11-23T00:58:21.008Z,0
2017-11-23T00:59:29.836Z,0
2017-11-23T01:00:38.664Z,0
2017-11-23T01:01:47.494Z,0
2017-11-23T01:02:56.325Z,0
2017-11-23T01:04:05.156Z,0
2017-11-23T01:05:13.985Z,0
2017-11-23T01:06:23.315Z,0
2017-11-23T01:07:32.145Z,0
2017-11-23T01:08:40.974Z,0
2017-11-23T01:09:50.085Z,0
2017-11-23T01:10:58.919Z,0
2017-11-23T01:12:07.744Z,0
2017-11-23T01:13:16.574Z,0
2017-11-23T01:14:25.401Z,0
2017-11-23T01:15:34.232Z,0
2017-11-23T01:16:43.060Z,0
2017-11-23T01:17:52.087Z,0
2017-11-23T01:19:00.914Z,0
2017-11-23T01:20:09.744Z,0
2017-11-23T01:21:18.575Z,0
2017-11-23T01:22:27.404Z,0
2017-11-23T01:23:36.608Z,0
2017-11-23T01:24:45.726Z,0
2017-11-23T01:25:54.555Z,0
2017-11-23T01:27:03.385Z,0
2017-11-23T01:28:12.214Z,0
2017-11-23T01:30:20.556Z,0
2017-11-23T01:31:29.383Z,0
2017-11-23T01:32:38.215Z,0
2017-11-23T01:33:47.042Z,0
2017-11-23T01:34:55.869Z,0
2017-11-23T01:36:04.698Z,0
2017-11-23T01:37:13.805Z,0
2017-11-23T01:38:22.636Z,0
2017-11-23T01:39:31.465Z,0
2017-11-23T01:40:40.348Z,0
2017-11-23T01:41:49.175Z,0
2017-11-23T01:42:58.007Z,0
2017-11-23T01:44:06.841Z,0
2017-11-23T01:45:15.668Z,0
2017-11-23T01:46:24.896Z,0
2017-11-23T01:47:33.725Z,0
2017-11-23T01:48:42.552Z,0
2017-11-23T01:49:51.380Z,0
2017-11-23T01:51:00.208Z,0
2017-11-23T01:52:09.188Z,0
2017-11-23T01:53:18.294Z,0
2017-11-23T01:54:27.404Z,0
2017-11-23T01:55:36.234Z,0
2017-11-23T01:56:45.060Z,0
2017-11-23T01:57:54.203Z,0
2017-11-23T01:59:03.015Z,0
2017-11-23T02:00:11.846Z,0
2017-11-23T02:01:20.673Z,0
2017-11-23T02:02:29.504Z,0
2017-11-23T02:03:38.632Z,0
2017-11-23T02:04:47.466Z,0
2017-11-23T02:05:56.297Z,0
2017-11-23T02:07:05.414Z,0
2017-11-23T02:08:14.529Z,0
2017-11-23T02:09:23.470Z,0
2017-11-23T02:10:32.286Z,0
2017-11-23T02:11:41.114Z,0
2017-11-23T02:12:49.943Z,0
2017-11-23T02:13:58.769Z,0
2017-11-23T02:15:07.751Z,0
2017-11-23T02:16:16.585Z,0
2017-11-23T02:17:25.414Z,0
2017-11-23T02:18:34.242Z,0
2017-11-23T02:19:43.070Z,0
2017-11-23T02:20:51.899Z,0
2017-11-23T02:22:01.021Z,0
2017-11-23T02:23:09.852Z,0
2017-11-23T02:24:18.678Z,0
2017-11-23T02:25:27.508Z,0
2017-11-23T02:26:36.540Z,0
2017-11-23T02:27:45.390Z,0
2017-11-23T02:28:54.207Z,0
2017-11-23T02:30:03.242Z,0
2017-11-23T02:31:12.624Z,0
2017-11-23T02:32:21.600Z,0
2017-11-23T02:33:30.432Z,0
2017-11-23T02:34:39.264Z,0
2017-11-23T02:35:48.093Z,0
2017-11-23T02:36:56.921Z,0
2017-11-23T02:38:06.084Z,0
2017-11-23T02:39:15.478Z,0
2017-11-23T02:40:24.309Z,0
2017-11-23T02:41:33.417Z,0
2017-11-23T02:42:42.251Z,0
2017-11-23T02:43:51.131Z,0
2017-11-23T02:44:59.959Z,0
2017-11-23T02:46:08.791Z,0
2017-11-23T02:47:17.622Z,0
2017-11-23T02:48:26.450Z,0
2017-11-23T02:49:35.280Z,0
2017-11-23T02:50:44.112Z,0
2017-11-23T02:51:52.949Z,0
2017-11-23T02:53:01.769Z,0
2017-11-23T02:54:10.598Z,0
2017-11-23T02:55:19.678Z,0
2017-11-23T02:56:28.506Z,0
2017-11-23T02:57:37.337Z,0
2017-11-23T02:58:46.167Z,0
2017-11-23T02:59:54.995Z,0
2017-11-23T03:01:03.932Z,0
2017-11-23T03:02:13.035Z,0
2017-11-23T03:03:21.864Z,0
2017-11-23T03:04:30.700Z,0
2017-11-23T03:05:39.523Z,0
2017-11-23T03:06:48.351Z,0
2017-11-23T03:07:57.180Z,0
2017-11-23T03:09:06.009Z,0
2017-11-23T03:10:14.836Z,0
2017-11-23T03:11:56.101Z,0
2017-11-23T03:13:04.932Z,0
2017-11-23T03:14:13.761Z,0
2017-11-23T03:15:22.589Z,0
2017-11-23T03:16:31.418Z,0
2017-11-23T03:17:40.550Z,0
2017-11-23T03:18:49.380Z,0
2017-11-23T03:19:58.208Z,0
2017-11-23T03:21:07.038Z,0
2017-11-23T03:22:15.867Z,0
2017-11-23T03:23:24.805Z,0
2017-11-23T03:24:33.630Z,0
2017-11-23T03:25:42.461Z,0
2017-11-23T03:26:51.291Z,0
2017-11-23T03:28:00.120Z,0
2017-11-23T03:29:09.240Z,0
2017-11-23T03:30:18.067Z,0
2017-11-23T03:31:27.173Z,0
2017-11-23T03:32:36.005Z,0
2017-11-23T03:33:44.835Z,0
2017-11-23T03:34:54.074Z,0
2017-11-23T03:36:02.890Z,0
2017-11-23T03:37:11.720Z,0
2017-11-23T03:38:20.551Z,0
2017-11-23T03:39:29.380Z,0
2017-11-23T03:40:38.211Z,0
2017-11-23T03:41:47.039Z,0
2017-11-23T03:42:55.868Z,0
2017-11-23T03:44:04.973Z,0
2017-11-23T03:45:13.802Z,0
2017-11-23T03:46:22.935Z,0
2017-11-23T03:47:32.040Z,0
2017-11-23T03:48:40.870Z,0
2017-11-23T03:49:49.698Z,0
2017-11-23T03:50:58.527Z,0
2017-11-23T03:52:07.505Z,0
2017-11-23T03:53:16.333Z,0
2017-11-23T03:54:25.165Z,0
2017-11-23T03:55:34.272Z,0
2017-11-23T03:56:43.102Z,0
2017-11-23T03:57:52.081Z,0
2017-11-23T03:59:00.909Z,0
2017-11-23T04:00:09.738Z,0
2017-11-23T04:01:18.842Z,0
2017-11-23T04:02:27.671Z,0
2017-11-23T04:03:36.548Z,0
2017-11-23T04:04:45.379Z,0
2017-11-23T04:05:54.209Z,0
2017-11-23T04:07:03.035Z,0
2017-11-23T04:08:11.865Z,0
2017-11-23T04:09:20.992Z,0
2017-11-23T04:10:29.827Z,0
2017-11-23T04:11:38.649Z,0
2017-11-23T04:12:47.477Z,0
2017-11-23T04:13:56.323Z,0
2017-11-23T04:15:05.286Z,0
2017-11-23T04:16:14.121Z,0
2017-11-23T04:17:22.952Z,0
2017-11-23T04:18:32.061Z,0
2017-11-23T04:19:40.894Z,0
2017-11-23T04:20:49.766Z,0
2017-11-23T04:21:58.597Z,0
2017-11-23T04:23:07.704Z,0
2017-11-23T04:24:16.531Z,0
2017-11-23T04:25:25.359Z,0
2017-11-23T04:26:34.188Z,0
2017-11-23T04:27:43.017Z,0
2017-11-23T04:28:51.847Z,0
2017-11-23T04:30:01.135Z,0
2017-11-23T04:31:09.953Z,0
2017-11-23T04:32:18.930Z,0
2017-11-23T04:33:27.760Z,0
2017-11-23T04:34:36.590Z,0
2017-11-23T04:35:45.702Z,0
2017-11-23T04:36:54.816Z,0
2017-11-23T04:38:03.694Z,0
2017-11-23T04:39:12.524Z,0
2017-11-23T04:40:21.351Z,0
2017-11-23T04:41:30.461Z,0
2017-11-23T04:42:39.288Z,0
2017-11-23T04:43:48.124Z,0
2017-11-23T04:44:56.946Z,0
2017-11-23T04:46:05.777Z,0
2017-11-23T04:47:14.606Z,0
2017-11-23T04:48:23.434Z,0
2017-11-23T04:49:32.365Z,0
2017-11-23T04:50:41.474Z,0
2017-11-23T04:51:50.304Z,0
2017-11-23T04:52:59.131Z,0
2017-11-23T04:54:07.959Z,0
2017-11-23T04:55:16.840Z,0
2017-11-23T04:56:25.665Z,0
2017-11-23T04:57:34.494Z,0
2017-11-23T04:58:43.323Z,0
2017-11-23T04:59:52.151Z,0
2017-11-23T05:01:01.078Z,0
2017-11-23T05:02:09.907Z,0
2017-11-23T05:03:18.739Z,0
2017-11-23T05:04:27.564Z,0
2017-11-23T05:05:36.392Z,0
2017-11-23T05:06:45.507Z,0
2017-11-23T05:07:54.336Z,0
2017-11-23T05:09:03.162Z,0
2017-11-23T05:10:11.996Z,0
2017-11-23T05:11:20.828Z,0
2017-11-23T05:12:29.806Z,0
2017-11-23T05:13:38.635Z,0
2017-11-23T05:14:47.737Z,0
2017-11-23T05:15:56.568Z,0
2017-11-23T05:17:05.396Z,0
2017-11-23T05:18:14.324Z,0
2017-11-23T05:19:23.152Z,0
2017-11-23T05:20:31.983Z,0
2017-11-23T05:21:40.810Z,0
2017-11-23T05:22:49.637Z,0
2017-11-23T05:23:58.616Z,0
2017-11-23T05:25:07.445Z,0
2017-11-23T05:26:16.275Z,0
2017-11-23T05:27:25.105Z,0
2017-11-23T05:28:33.934Z,0
2017-11-23T05:29:42.860Z,0
2017-11-23T05:30:51.691Z,0
2017-11-23T05:32:00.521Z,0
2017-11-23T05:33:09.351Z,0
2017-11-23T05:34:18.182Z,0
2017-11-23T05:35:27.160Z,0
2017-11-23T05:36:35.987Z,0
2017-11-23T05:37:44.815Z,0
2017-11-23T05:38:53.645Z,0
2017-11-23T05:40:02.478Z,0
2017-11-23T05:41:11.366Z,0
2017-11-23T05:42:20.183Z,0
2017-11-23T05:43:29.013Z,0
2017-11-23T05:44:37.847Z,0
2017-11-23T05:45:46.682Z,0
2017-11-23T05:46:55.662Z,0
2017-11-23T05:48:04.486Z,0
2017-11-23T05:49:13.317Z,0
2017-11-23T05:50:22.146Z,0
2017-11-23T05:51:31.255Z,0
2017-11-23T05:52:40.088Z,0
2017-11-23T05:53:48.914Z,0
2017-11-23T05:54:57.743Z,0
2017-11-23T05:56:06.570Z,0
2017-11-23T05:57:15.406Z,0
2017-11-23T05:58:24.531Z,0
2017-11-23T05:59:33.361Z,0
2017-11-23T06:00:42.469Z,0
2017-11-23T06:01:51.588Z,0
2017-11-23T06:03:00.984Z,0
2017-11-23T06:04:09.967Z,0
2017-11-23T06:05:18.796Z,0
2017-11-23T06:06:27.624Z,0
2017-11-23T06:07:36.458Z,0
2017-11-23T06:08:45.285Z,0
2017-11-23T06:09:54.265Z,0
2017-11-23T06:11:03.379Z,0
2017-11-23T06:12:12.487Z,0
2017-11-23T06:13:21.318Z,0
2017-11-23T06:14:30.150Z,0
2017-11-23T06:15:39.030Z,0
2017-11-23T06:16:48.143Z,0
2017-11-23T06:17:56.980Z,0
2017-11-23T06:19:05.907Z,0
2017-11-23T06:20:14.736Z,0
2017-11-23T06:21:23.947Z,0
2017-11-23T06:22:32.779Z,0
2017-11-23T06:23:41.615Z,0
2017-11-23T06:24:50.721Z,0
2017-11-23T06:25:59.555Z,0
2017-11-23T06:27:08.392Z,0
2017-11-23T06:28:17.224Z,0
2017-11-23T06:29:26.055Z,0
2017-11-23T06:30:34.888Z,0
2017-11-23T06:31:43.718Z,0
2017-11-23T06:32:52.547Z,0
2017-11-23T06:34:01.664Z,0
2017-11-23T06:35:10.494Z,0
2017-11-23T06:36:19.324Z,0
2017-11-23T06:37:28.153Z,0
2017-11-23T06:38:37.033Z,0
2017-11-23T06:39:45.861Z,0
2017-11-23T06:40:54.692Z,0
2017-11-23T06:42:03.521Z,0
2017-11-23T06:43:12.358Z,0
2017-11-23T06:44:21.564Z,0
2017-11-23T06:45:30.400Z,0
2017-11-23T06:46:39.516Z,0
2017-11-23T06:47:48.345Z,0
2017-11-23T06:48:57.177Z,0
2017-11-23T06:50:06.257Z,0
2017-11-23T06:51:15.088Z,0
2017-11-23T06:52:23.918Z,0
2017-11-23T06:53:32.751Z,0
2017-11-23T06:54:41.580Z,0
2017-11-23T06:55:50.738Z,0
2017-11-23T06:56:59.849Z,5
2017-11-23T06:58:09.236Z,5
2017-11-23T06:59:18.067Z,5
2017-11-23T07:00:26.896Z,5
2017-11-23T07:01:35.876Z,5
2017-11-23T07:02:44.706Z,5
2017-11-23T07:03:53.536Z,5
2017-11-23T07:05:02.362Z,5
2017-11-23T07:06:11.192Z,5
2017-11-23T07:07:20.271Z,5
2017-11-23T07:08:29.099Z,5
2017-11-23T07:09:37.930Z,5
2017-11-23T07:10:46.764Z,5
2017-11-23T07:11:55.595Z,5
2017-11-23T07:13:04.429Z,5
2017-11-23T07:14:13.257Z,5
2017-11-23T07:15:22.364Z,10
2017-11-23T07:16:31.193Z,10
2017-11-23T07:17:40.023Z,10
2017-11-23T07:18:49.004Z,10
2017-11-23T07:19:57.837Z,10
2017-11-23T07:21:06.670Z,10
2017-11-23T07:22:15.500Z,10
2017-11-23T07:23:24.326Z,10
2017-11-23T07:24:33.461Z,10
2017-11-23T07:25:42.292Z,10
2017-11-23T07:26:51.126Z,10
2017-11-23T07:27:59.954Z,15
2017-11-23T07:29:08.785Z,15
2017-11-23T07:30:17.763Z,15
2017-11-23T07:31:26.879Z,15
2017-11-23T07:32:35.709Z,20
2017-11-23T07:33:44.537Z,20
2017-11-23T07:34:53.367Z,20
2017-11-23T07:36:02.399Z,20
2017-11-23T07:37:11.228Z,20
2017-11-23T07:38:20.058Z,20
2017-11-23T07:39:28.892Z,20
2017-11-23T07:40:37.721Z,25
2017-11-23T07:41:46.605Z,25
2017-11-23T07:42:55.429Z,25
2017-11-23T07:44:04.262Z,30
2017-11-23T07:45:13.091Z,30
2017-11-23T07:46:21.924Z,30
2017-11-23T07:47:30.898Z,35
2017-11-23T07:48:39.730Z,40
2017-11-23T07:49:48.562Z,40
2017-11-23T07:50:57.395Z,40
2017-11-23T07:52:06.226Z,40
2017-11-23T07:53:15.156Z,40
2017-11-23T07:54:23.987Z,40
2017-11-23T07:55:32.818Z,40
2017-11-23T07:56:41.649Z,40
2017-11-23T07:57:50.479Z,40
2017-11-23T07:58:59.411Z,40
2017-11-23T08:00:08.241Z,35
2017-11-23T08:01:17.071Z,30
2017-11-23T08:02:25.902Z,30
2017-11-23T08:03:34.732Z,25
2017-11-23T08:04:43.565Z,20
2017-11-23T08:05:52.395Z,20
2017-11-23T08:07:01.227Z,20
2017-11-23T08:08:10.056Z,20
2017-11-23T08:09:18.888Z,25
2017-11-23T08:10:27.775Z,25
2017-11-23T08:11:36.601Z,30
2017-11-23T08:12:45.432Z,25
2017-11-23T08:13:54.267Z,25
2017-11-23T08:15:03.097Z,25
2017-11-23T08:16:12.076Z,30
2017-11-23T08:17:20.906Z,30
2017-11-23T08:18:29.742Z,30
2017-11-23T08:19:38.571Z,30
2017-11-23T08:20:47.410Z,30
2017-11-23T08:21:56.233Z,30
2017-11-23T08:23:05.342Z,25
2017-11-23T08:24:14.175Z,30
2017-11-23T08:25:23.006Z,30
2017-11-23T08:26:31.837Z,35
2017-11-23T08:27:40.817Z,35
2017-11-23T08:28:49.647Z,35
2017-11-23T08:29:58.476Z,35
2017-11-23T08:31:07.584Z,40
2017-11-23T08:32:16.414Z,45
2017-11-23T08:33:25.295Z,50
2017-11-23T08:34:34.124Z,55
2017-11-23T08:35:42.956Z,60
2017-11-23T08:36:51.790Z,70
2017-11-23T08:38:00.623Z,75
2017-11-23T08:39:09.453Z,85
2017-11-23T08:40:18.286Z,95
2017-11-23T08:41:27.117Z,105
2017-11-23T08:42:36.231Z,110
2017-11-23T08:43:45.066Z,110
2017-11-23T08:44:53.953Z,100
2017-11-23T08:46:03.061Z,90
2017-11-23T08:47:12.176Z,85
2017-11-23T08:48:21.011Z,90
2017-11-23T08:49:29.838Z,90
2017-11-23T08:50:38.820Z,90
2017-11-23T08:51:47.652Z,95
2017-11-23T08:52:56.480Z,100
2017-11-23T08:54:05.309Z,105
2017-11-23T08:55:14.137Z,110
2017-11-23T08:56:23.067Z,110
2017-11-23T08:57:31.897Z,110
2017-11-23T08:58:40.728Z,110
2017-11-23T08:59:49.558Z,110
2017-11-23T09:00:58.391Z,115
2017-11-23T09:02:07.326Z,115
2017-11-23T09:03:16.159Z,115
2017-11-23T09:04:24.988Z,115
2017-11-23T09:05:33.818Z,115
2017-11-23T09:06:42.651Z,115
2017-11-23T09:07:51.640Z,115
2017-11-23T09:09:00.465Z,115
2017-11-23T09:10:09.295Z,115
2017-11-23T09:11:18.126Z,120
2017-11-23T09:12:26.959Z,120
2017-11-23T09:13:36.090Z,120
2017-11-23T09:14:44.921Z,120
2017-11-23T09:15:53.751Z,120
2017-11-23T09:17:02.585Z,120
2017-11-23T09:18:11.693Z,120
2017-11-23T09:19:20.526Z,125
2017-11-23T09:20:29.356Z,125
2017-11-23T09:21:38.475Z,125
2017-11-23T09:22:47.308Z,125
2017-11-23T09:23:56.421Z,130
2017-11-23T09:25:05.254Z,130
2017-11-23T09:26:14.089Z,130
2017-11-23T09:27:22.918Z,130
2017-11-23T09:28:31.750Z,135
2017-11-23T09:29:40.581Z,135
2017-11-23T09:30:49.514Z,140
2017-11-23T09:31:58.345Z,145
2017-11-23T09:33:07.175Z,150
2017-11-23T09:34:16.007Z,155
2017-11-23T09:35:24.838Z,165
2017-11-23T09:36:33.966Z,165
2017-11-23T09:37:42.799Z,155
2017-11-23T09:38:51.923Z,140
2017-11-23T09:40:00.750Z,135
2017-11-23T09:41:09.860Z,135
2017-11-23T09:42:18.692Z,135
2017-11-23T09:43:27.525Z,140
2017-11-23T09:44:36.353Z,140
2017-11-23T09:45:45.187Z,135
2017-11-23T09:46:54.018Z,135
2017-11-23T09:48:02.849Z,135
2017-11-23T09:49:11.680Z,135
2017-11-23T09:50:20.511Z,140
2017-11-23T09:51:29.343Z,140
2017-11-23T09:52:38.176Z,140
2017-11-23T09:53:47.110Z,135
2017-11-23T09:54:55.942Z,135
2017-11-23T09:56:04.777Z,130
2017-11-23T09:57:13.613Z,145
2017-11-23T09:58:22.721Z,160
2017-11-23T09:59:31.856Z,180
2017-11-23T10:00:40.686Z,185
2017-11-23T10:01:49.519Z,195
2017-11-23T10:02:58.922Z,200
2017-11-23T10:04:07.768Z,205
2017-11-23T10:05:16.598Z,210
2017-11-23T10:06:25.431Z,215
2017-11-23T10:07:34.263Z,210
2017-11-23T10:08:43.097Z,210
2017-11-23T10:09:51.931Z,210
2017-11-23T10:11:00.763Z,190
2017-11-23T10:12:09.597Z,180
2017-11-23T10:13:18.730Z,185
2017-11-23T10:14:27.838Z,210
2017-11-23T10:15:36.668Z,165
2017-11-23T10:16:45.552Z,145
2017-11-23T10:17:54.661Z,145
2017-11-23T10:19:03.495Z,130
2017-11-23T10:20:12.327Z,135
2017-11-23T10:21:21.161Z,145
2017-11-23T10:22:30.090Z,175
2017-11-23T10:23:39.218Z,220
2017-11-23T10:24:48.051Z,275
2017-11-23T10:25:56.885Z,295
2017-11-23T10:27:05.718Z,315
2017-11-23T10:28:14.700Z,305
2017-11-23T10:29:23.533Z,295
2017-11-23T10:30:32.367Z,300
2017-11-23T10:31:41.199Z,305
2017-11-23T10:32:50.320Z,285
2017-11-23T10:33:59.200Z,260
2017-11-23T10:35:08.032Z,225
2017-11-23T10:36:16.868Z,200
2017-11-23T10:37:25.709Z,185
2017-11-23T10:38:34.540Z,180
2017-11-23T10:39:43.474Z,220
2017-11-23T10:40:52.308Z,220
2017-11-23T10:42:01.141Z,250
2017-11-23T10:43:10.253Z,265
2017-11-23T10:44:19.092Z,305
2017-11-23T10:45:28.353Z,305
2017-11-23T10:46:37.467Z,260
2017-11-23T10:47:46.301Z,235
2017-11-23T10:48:55.136Z,245
2017-11-23T10:50:03.973Z,260
2017-11-23T10:51:12.903Z,255
2017-11-23T10:52:22.033Z,270
2017-11-23T10:53:30.857Z,285
2017-11-23T10:54:39.688Z,340
2017-11-23T10:55:48.523Z,345
2017-11-23T10:56:57.353Z,350
2017-11-23T10:58:06.186Z,370
2017-11-23T10:59:15.020Z,365
2017-11-23T11:00:23.854Z,350
2017-11-23T11:01:32.687Z,315
2017-11-23T11:02:41.673Z,275
2017-11-23T11:03:50.507Z,280
2017-11-23T11:04:59.338Z,225
2017-11-23T11:06:08.180Z,175
2017-11-23T11:07:17.008Z,155
2017-11-23T11:08:25.994Z,140
2017-11-23T11:09:34.832Z,190
2017-11-23T11:10:43.944Z,240
2017-11-23T11:11:52.783Z,240
2017-11-23T11:13:01.616Z,180
2017-11-23T11:14:10.877Z,160
2017-11-23T11:15:19.711Z,150
2017-11-23T11:16:28.550Z,145
2017-11-23T11:17:37.375Z,125
2017-11-23T11:18:46.208Z,145
2017-11-23T11:19:55.043Z,135
2017-11-23T11:21:03.878Z,80
2017-11-23T11:22:12.710Z,85
2017-11-23T11:23:21.543Z,75
2017-11-23T11:24:30.386Z,70
2017-11-23T11:25:39.261Z,75
2017-11-23T11:26:48.373Z,65
2017-11-23T11:27:57.209Z,85
2017-11-23T11:29:06.042Z,90
2017-11-23T11:30:15.274Z,105
2017-11-23T11:31:24.308Z,85
2017-11-23T11:32:33.141Z,95
2017-11-23T11:33:41.976Z,95
2017-11-23T11:34:51.086Z,80
2017-11-23T11:35:59.925Z,75
2017-11-23T11:37:09.086Z,75
2017-11-23T11:38:18.205Z,75
2017-11-23T11:39:27.038Z,75
2017-11-23T11:40:35.873Z,90
2017-11-23T11:41:44.704Z,85
2017-11-23T11:42:53.592Z,70
2017-11-23T11:44:02.427Z,60
2017-11-23T11:45:11.259Z,55
2017-11-23T11:46:20.092Z,50
2017-11-23T11:47:28.925Z,60
2017-11-23T11:48:37.808Z,60
2017-11-23T11:49:46.644Z,55
2017-11-23T11:50:55.477Z,55
2017-11-23T11:52:04.595Z,55
2017-11-23T11:53:13.761Z,70
2017-11-23T11:54:22.746Z,65
2017-11-23T11:55:31.580Z,70
2017-11-23T11:56:40.414Z,75
2017-11-23T11:57:49.248Z,70
2017-11-23T11:58:58.156Z,70
2017-11-23T12:00:07.340Z,70
2017-11-23T12:01:16.174Z,70
2017-11-23T12:02:25.594Z,85
2017-11-23T12:03:35.424Z,115
2017-11-23T12:04:44.364Z,135
2017-11-23T12:05:53.222Z,155
2017-11-23T12:07:02.644Z,180
2017-11-23T12:08:11.767Z,180
2017-11-23T12:09:20.771Z,135
2017-11-23T12:10:30.947Z,115
2017-11-23T12:11:40.089Z,85
2017-11-23T12:12:49.812Z,65
2017-11-23T12:13:58.655Z,55
2017-11-23T12:15:07.540Z,50
2017-11-23T12:16:16.439Z,45
2017-11-23T12:17:25.699Z,50
2017-11-23T12:18:35.031Z,50
2017-11-23T12:19:43.925Z,50
2017-11-23T12:20:53.171Z,45
2017-11-23T12:22:02.323Z,50
2017-11-23T12:23:11.261Z,50
2017-11-23T12:24:20.410Z,45
2017-11-23T12:25:29.630Z,45
2017-11-23T12:26:38.985Z,45
2017-11-23T12:27:47.891Z,45
2017-11-23T12:28:57.315Z,65
2017-11-23T12:30:06.198Z,55
2017-11-23T12:31:15.357Z,55
2017-11-23T12:32:24.527Z,40
2017-11-23T12:33:33.381Z,45
2017-11-23T12:34:42.214Z,55
2017-11-23T12:35:51.050Z,60
2017-11-23T12:37:00.165Z,75
2017-11-23T12:38:09.215Z,80
2017-11-23T12:39:18.099Z,80
2017-11-23T12:40:27.162Z,75
2017-11-23T12:41:36.084Z,70
2017-11-23T12:42:45.036Z,70
2017-11-23T12:43:53.882Z,55
2017-11-23T12:45:02.709Z,35
2017-11-23T12:46:11.544Z,30
2017-11-23T12:47:20.379Z,35
2017-11-23T12:48:29.641Z,40
2017-11-23T12:49:38.476Z,50
2017-11-23T12:50:47.313Z,85
2017-11-23T12:51:56.145Z,125
2017-11-23T12:53:04.980Z,185
2017-11-23T12:54:13.913Z,165
2017-11-23T12:55:22.755Z,190
2017-11-23T12:56:31.581Z,180
2017-11-23T12:57:40.416Z,95
2017-11-23T12:58:49.251Z,95
2017-11-23T12:59:58.230Z,120
2017-11-23T13:01:07.067Z,110
2017-11-23T13:02:15.900Z,120
2017-11-23T13:03:25.012Z,100
2017-11-23T13:04:33.849Z,70
2017-11-23T13:05:42.682Z,80
2017-11-23T13:06:51.514Z,80
2017-11-23T13:08:00.350Z,75
2017-11-23T13:09:09.182Z,105
2017-11-23T13:10:18.016Z,105
2017-11-23T13:11:26.902Z,90
2017-11-23T13:12:36.012Z,105
2017-11-23T13:13:44.850Z,100
2017-11-23T13:14:53.684Z,100
2017-11-23T13:16:02.517Z,100
2017-11-23T13:17:11.854Z,85
2017-11-23T13:18:20.707Z,65
2017-11-23T13:19:29.548Z,55
2017-11-23T13:20:38.382Z,50
2017-11-23T13:21:47.215Z,50
2017-11-23T13:22:56.197Z,50
2017-11-23T13:24:05.030Z,35
2017-11-23T13:25:13.870Z,40
2017-11-23T13:26:22.704Z,35
2017-11-23T13:27:31.540Z,45
2017-11-23T13:28:40.427Z,55
2017-11-23T13:29:49.273Z,50
2017-11-23T13:30:58.121Z,55
2017-11-23T13:32:07.232Z,45
2017-11-23T13:33:16.342Z,40
2017-11-23T13:34:25.326Z,50
2017-11-23T13:35:34.170Z,45
2017-11-23T13:36:43.013Z,45
2017-11-23T13:37:51.847Z,55
2017-11-23T13:39:00.679Z,45
2017-11-23T13:40:09.614Z,35
2017-11-23T13:41:18.447Z,60
2017-11-23T13:42:27.283Z,80
2017-11-23T13:43:36.117Z,90
2017-11-23T13:44:45.228Z,110
2017-11-23T13:45:54.062Z,90
2017-11-23T13:47:02.897Z,45
2017-11-23T13:48:11.729Z,25
2017-11-23T13:49:20.564Z,35
2017-11-23T13:50:29.398Z,25
2017-11-23T13:51:38.383Z,20
2017-11-23T13:52:47.498Z,25
2017-11-23T13:53:56.331Z,35
2017-11-23T13:55:05.165Z,25
2017-11-23T13:56:14.003Z,25
2017-11-23T13:57:23.262Z,25
2017-11-23T13:58:32.388Z,30
2017-11-23T13:59:41.220Z,25
2017-11-23T14:00:50.053Z,40
2017-11-23T14:01:58.885Z,30
2017-11-23T14:03:08.006Z,20
2017-11-23T14:04:16.839Z,20
2017-11-23T14:05:25.675Z,30
2017-11-23T14:06:34.508Z,35
2017-11-23T14:07:43.343Z,30
2017-11-23T14:08:52.224Z,25
2017-11-23T14:10:01.057Z,30
2017-11-23T14:11:09.993Z,35
2017-11-23T14:12:18.823Z,20
2017-11-23T14:13:27.664Z,15
2017-11-23T14:14:36.925Z,20
2017-11-23T14:15:45.761Z,20
2017-11-23T14:16:54.870Z,20
2017-11-23T14:18:03.703Z,20
2017-11-23T14:19:12.534Z,20
2017-11-23T14:20:21.418Z,20
2017-11-23T14:21:30.267Z,25
2017-11-23T14:22:39.362Z,50
2017-11-23T14:23:48.193Z,70
2017-11-23T14:24:57.027Z,55
2017-11-23T14:26:06.155Z,40
2017-11-23T14:27:15.261Z,30
2017-11-23T14:28:24.096Z,25
2017-11-23T14:29:32.928Z,35
2017-11-23T14:30:41.763Z,25
2017-11-23T14:31:50.599Z,30
2017-11-23T14:32:59.430Z,35
2017-11-23T14:34:08.267Z,25
2017-11-23T14:35:17.100Z,30
2017-11-23T14:36:25.935Z,40
2017-11-23T14:37:35.018Z,40
2017-11-23T14:38:43.853Z,25
2017-11-23T14:39:52.686Z,15
2017-11-23T14:41:01.519Z,10
2017-11-23T14:42:10.352Z,15
2017-11-23T14:43:19.382Z,30
2017-11-23T14:44:28.215Z,30
2017-11-23T14:45:37.045Z,30
2017-11-23T14:46:45.880Z,30
2017-11-23T14:47:54.720Z,20
2017-11-23T14:49:03.850Z,15
2017-11-23T14:50:12.685Z,15
2017-11-23T14:51:21.520Z,10
2017-11-23T14:52:30.630Z,10
2017-11-23T14:53:39.463Z,5
2017-11-23T14:54:48.294Z,10
2017-11-23T14:55:57.128Z,15
2017-11-23T14:57:05.962Z,15
2017-11-23T14:58:14.808Z,15
2017-11-23T14:59:23.628Z,25
2017-11-23T15:00:32.464Z,30
2017-11-23T15:01:41.579Z,25
2017-11-23T15:02:50.700Z,20
2017-11-23T15:03:59.542Z,20
2017-11-23T15:05:08.373Z,15
2017-11-23T15:06:17.257Z,10
2017-11-23T15:07:26.087Z,5
2017-11-23T15:08:34.921Z,5
2017-11-23T15:09:43.754Z,5
2017-11-23T15:10:52.584Z,5
2017-11-23T15:12:01.469Z,5
2017-11-23T15:13:10.301Z,0
2017-11-23T15:14:19.135Z,0
2017-11-23T15:15:28.252Z,5
2017-11-23T15:16:37.085Z,5
2017-11-23T15:17:45.918Z,5
2017-11-23T15:18:54.749Z,0
2017-11-23T15:20:03.583Z,0
2017-11-23T15:21:12.702Z,0
2017-11-23T15:22:21.534Z,0
2017-11-23T15:23:30.517Z,0
2017-11-23T15:24:39.361Z,0
2017-11-23T15:25:48.463Z,0
2017-11-23T15:26:57.304Z,0
2017-11-23T15:28:06.129Z,0
2017-11-23T15:29:15.109Z,0
2017-11-23T15:30:24.221Z,0
2017-11-23T15:31:33.053Z,0
2017-11-23T15:32:41.886Z,0
2017-11-23T15:33:50.718Z,0
2017-11-23T15:34:59.703Z,0
2017-11-23T15:36:08.537Z,0
2017-11-23T15:37:17.649Z,0
2017-11-23T15:38:26.480Z,0
2017-11-23T15:39:35.313Z,0
2017-11-23T15:40:44.580Z,0
2017-11-23T15:41:53.411Z,0
2017-11-23T15:43:02.245Z,0
2017-11-23T15:44:11.077Z,0
2017-11-23T15:45:19.920Z,0
2017-11-23T15:46:28.793Z,0
2017-11-23T15:47:37.626Z,0
2017-11-23T15:48:46.460Z,0
2017-11-23T15:49:55.291Z,0
2017-11-23T15:51:04.123Z,0
2017-11-23T15:52:13.256Z,0
2017-11-23T15:53:22.089Z,0
2017-11-23T15:54:30.920Z,0
2017-11-23T15:55:40.036Z,0
2017-11-23T15:56:48.868Z,0
2017-11-23T15:57:58.001Z,0
2017-11-23T15:59:06.836Z,0
2017-11-23T16:00:15.961Z,0
2017-11-23T16:01:24.804Z,0
2017-11-23T16:02:33.924Z,0
2017-11-23T16:03:42.750Z,0
2017-11-23T16:04:51.868Z,0
2017-11-23T16:06:00.700Z,0
2017-11-23T16:07:09.810Z,0
2017-11-23T16:08:18.643Z,0
2017-11-23T16:09:27.576Z,0
2017-11-23T16:10:36.415Z,0
2017-11-23T16:11:45.243Z,0
2017-11-23T16:12:54.076Z,0
2017-11-23T16:14:02.908Z,0
2017-11-23T16:15:11.991Z,0
2017-11-23T16:16:20.821Z,0
2017-11-23T16:17:29.653Z,0
2017-11-23T16:18:38.762Z,0
2017-11-23T16:19:47.592Z,0
2017-11-23T16:20:56.428Z,0
2017-11-23T16:22:05.261Z,0
2017-11-23T16:23:14.093Z,0
2017-11-23T16:24:22.926Z,0
2017-11-23T16:25:31.760Z,0
2017-11-23T16:26:40.598Z,0
2017-11-23T16:27:49.426Z,0
2017-11-23T16:28:58.259Z,0
2017-11-23T16:30:07.092Z,0
2017-11-23T16:31:15.923Z,0
2017-11-23T16:32:25.002Z,0
2017-11-23T16:33:34.117Z,0
2017-11-23T16:34:42.948Z,0
2017-11-23T16:35:51.782Z,0
2017-11-23T16:37:00.904Z,0